createdAt,value
2019-05-16T00:02:12.992Z,2.60
2019-05-16T00:04:44.785Z,1.73
2019-05-16T00:07:18.959Z,2.30
2019-05-16T00:09:49.749Z,4.03
2019-05-16T00:12:21.532Z,2.40
2019-05-16T00:14:53.393Z,2.77
2019-05-16T00:17:28.484Z,1.93
2019-05-16T00:19:59.151Z,1.98
2019-05-16T00:22:30.699Z,2.10
2019-05-16T00:25:02.563Z,1.60
2019-05-16T00:27:38.357Z,2.43
2019-05-16T00:30:09.946Z,2.10
2019-05-16T00:32:41.764Z,2.70
2019-05-16T00:35:13.785Z,1.55
2019-05-16T00:37:45.309Z,3.05
2019-05-16T00:40:18.893Z,1.60
2019-05-16T00:42:50.697Z,3.37
2019-05-16T00:45:22.661Z,2.17
2019-05-16T00:47:53.728Z,2.63
2019-05-16T00:50:25.657Z,4.13
2019-05-16T00:52:59.042Z,1.92
2019-05-16T00:55:32.210Z,1.57
2019-05-16T00:58:05.866Z,4.77
2019-05-16T01:00:50.532Z,1.97
2019-05-16T01:03:21.915Z,1.60
2019-05-16T01:05:53.665Z,3.20
2019-05-16T01:08:27.934Z,3.70
2019-05-16T01:10:59.260Z,2.23
2019-05-16T01:13:30.800Z,1.90
2019-05-16T01:16:02.446Z,2.53
2019-05-16T01:18:34.093Z,2.50
2019-05-16T01:21:07.854Z,2.13
2019-05-16T01:23:39.532Z,2.17
2019-05-16T01:26:10.944Z,1.70
2019-05-16T01:28:43.361Z,2.23
2019-05-16T01:31:14.904Z,1.90
2019-05-16T01:33:47.884Z,1.95
2019-05-16T01:36:33.420Z,1.90
2019-05-16T01:38:53.189Z,2.00
2019-05-16T01:41:24.961Z,3.05
2019-05-16T01:43:58.518Z,2.20
2019-05-16T01:46:29.741Z,1.70
2019-05-16T01:49:01.616Z,2.77
2019-05-16T01:51:32.872Z,1.67
2019-05-16T01:54:04.163Z,3.17
2019-05-16T01:56:35.512Z,2.53
2019-05-16T01:59:08.811Z,2.22
2019-05-16T02:01:40.322Z,2.07
2019-05-16T02:04:12.200Z,3.10
2019-05-16T02:06:51.708Z,2.97
2019-05-16T02:09:18.899Z,2.17
2019-05-16T02:11:50.617Z,2.17
2019-05-16T02:14:21.926Z,2.17
2019-05-16T02:16:54.601Z,2.85
2019-05-16T02:19:27.989Z,2.90
2019-05-16T02:21:59.789Z,5.23
2019-05-16T02:24:31.395Z,2.40
2019-05-16T02:27:02.717Z,3.87
2019-05-16T02:29:34.223Z,3.00
2019-05-16T02:32:05.928Z,3.40
2019-05-16T02:34:41.340Z,2.30
2019-05-16T02:37:23.575Z,5.15
2019-05-16T02:39:44.051Z,2.30
2019-05-16T02:42:15.639Z,2.25
2019-05-16T02:44:50.983Z,2.33
2019-05-16T02:47:21.409Z,1.77
2019-05-16T02:49:52.828Z,2.47
2019-05-16T02:52:24.171Z,3.47
2019-05-16T02:54:55.961Z,2.92
2019-05-16T02:57:27.784Z,1.80
2019-05-16T03:00:01.703Z,3.00
2019-05-16T03:02:32.449Z,1.67
2019-05-16T03:05:04.116Z,2.17
2019-05-16T03:07:41.950Z,3.75
2019-05-16T03:10:11.069Z,3.30
2019-05-16T03:12:44.215Z,3.10
2019-05-16T03:15:15.973Z,2.98
2019-05-16T03:17:51.214Z,2.58
2019-05-16T03:20:25.809Z,3.83
2019-05-16T03:23:02.260Z,2.75
2019-05-16T03:25:33.302Z,2.10
2019-05-16T03:28:05.181Z,2.37
2019-05-16T03:30:36.195Z,3.60
2019-05-16T03:33:07.714Z,2.20
2019-05-16T03:35:44.560Z,1.45
2019-05-16T03:38:12.695Z,2.42
2019-05-16T03:40:45.174Z,3.27
2019-05-16T03:43:17.370Z,2.35
2019-05-16T03:45:52.099Z,2.08
2019-05-16T03:48:22.895Z,2.85
2019-05-16T03:50:54.692Z,4.65
2019-05-16T03:53:26.008Z,2.30
2019-05-16T03:55:58.115Z,2.65
2019-05-16T03:58:31.028Z,3.20
2019-05-16T04:01:02.863Z,2.97
2019-05-16T04:03:34.909Z,2.40
2019-05-16T04:06:06.524Z,2.37
2019-05-16T04:08:41.026Z,2.17
2019-05-16T04:11:12.590Z,3.42
2019-05-16T04:13:44.252Z,3.08
2019-05-16T04:16:16.189Z,2.52
2019-05-16T04:18:51.153Z,2.40
2019-05-16T04:21:22.288Z,1.75
2019-05-16T04:23:53.429Z,4.43
2019-05-16T04:26:25.406Z,2.23
2019-05-16T04:29:00.556Z,3.47
2019-05-16T04:31:31.126Z,1.95
2019-05-16T04:34:02.786Z,2.67
2019-05-16T04:36:34.329Z,2.15
2019-05-16T04:39:11.653Z,3.60
2019-05-16T04:41:41.643Z,3.90
2019-05-16T04:44:13.229Z,2.60
2019-05-16T04:46:46.047Z,1.50
2019-05-16T04:49:20.979Z,1.20
2019-05-16T04:51:51.870Z,3.58
2019-05-16T04:54:24.673Z,1.45
2019-05-16T04:56:56.002Z,2.87
2019-05-16T04:59:31.127Z,2.55
2019-05-16T05:02:03.240Z,2.70
2019-05-16T05:04:35.438Z,1.80
2019-05-16T05:07:07.052Z,2.70
2019-05-16T05:09:40.826Z,2.35
2019-05-16T05:12:12.587Z,1.93
2019-05-16T05:14:45.468Z,3.30
2019-05-16T05:17:17.544Z,1.80
2019-05-16T05:19:50.636Z,2.42
2019-05-16T05:22:22.885Z,2.37
2019-05-16T05:24:53.893Z,2.60
2019-05-16T05:27:25.519Z,3.45
2019-05-16T05:29:57.464Z,3.25
2019-05-16T05:32:30.570Z,6.08
2019-05-16T05:35:02.923Z,2.37
2019-05-16T05:37:34.705Z,4.47
2019-05-16T05:40:07.333Z,3.25
2019-05-16T05:42:40.156Z,3.33
2019-05-16T05:45:13.233Z,3.50
2019-05-16T05:47:45.327Z,6.42
2019-05-16T05:50:19.936Z,3.17
2019-05-16T05:52:51.353Z,2.30
2019-05-16T05:55:22.852Z,2.85
2019-05-16T05:57:54.718Z,2.40
2019-05-16T06:00:30.119Z,2.83
2019-05-16T06:03:00.441Z,2.87
2019-05-16T06:05:32.332Z,5.22
2019-05-16T06:08:03.746Z,2.45
2019-05-16T06:10:35.352Z,1.95
2019-05-16T06:13:07.453Z,1.62
2019-05-16T06:15:39.987Z,2.45
2019-05-16T06:18:12.003Z,5.03
2019-05-16T06:20:43.705Z,3.60
2019-05-16T06:23:14.717Z,3.27
2019-05-16T06:25:46.386Z,3.30
2019-05-16T06:28:20.544Z,2.60
2019-05-16T06:30:52.152Z,2.98
2019-05-16T06:33:24.417Z,3.95
2019-05-16T06:35:56.147Z,3.10
2019-05-16T06:38:29.796Z,3.20
2019-05-16T06:41:00.677Z,4.03
2019-05-16T06:43:32.131Z,5.17
2019-05-16T06:46:03.991Z,2.55
2019-05-16T06:48:35.984Z,4.72
2019-05-16T06:51:07.415Z,4.08
2019-05-16T06:53:40.470Z,4.45
2019-05-16T06:56:12.501Z,3.05
2019-05-16T06:58:48.283Z,6.33
2019-05-16T07:01:18.576Z,5.42
2019-05-16T07:03:51.025Z,5.72
2019-05-16T07:06:47.571Z,2.95
2019-05-16T07:08:57.078Z,2.65
2019-05-16T07:11:30.628Z,3.95
2019-05-16T07:14:02.269Z,3.62
2019-05-16T07:16:34.228Z,4.65
2019-05-16T07:19:06.249Z,3.42
2019-05-16T07:21:39.681Z,4.60
2019-05-16T07:24:11.929Z,3.17
2019-05-16T07:26:43.101Z,4.10
2019-05-16T07:29:15.052Z,3.00
2019-05-16T07:31:46.618Z,4.08
2019-05-16T07:34:17.715Z,2.30
2019-05-16T07:36:50.324Z,3.95
2019-05-16T07:39:21.846Z,3.02
2019-05-16T07:41:54.050Z,3.58
2019-05-16T07:44:25.668Z,3.77
2019-05-16T07:46:57.452Z,3.00
2019-05-16T07:49:30.455Z,2.60
2019-05-16T07:52:01.493Z,3.42
2019-05-16T07:54:34.518Z,4.22
2019-05-16T07:57:17.664Z,2.65
2019-05-16T07:59:40.518Z,3.00
2019-05-16T08:02:12.664Z,2.90
2019-05-16T08:04:43.986Z,3.80
2019-05-16T08:07:16.514Z,3.00
2019-05-16T08:09:50.465Z,3.17
2019-05-16T08:12:26.230Z,3.15
2019-05-16T08:14:55.348Z,4.47
2019-05-16T08:17:27.234Z,4.47
2019-05-16T08:20:00.028Z,5.60
2019-05-16T08:22:33.225Z,3.72
2019-05-16T08:25:05.224Z,2.80
2019-05-16T08:27:36.264Z,3.02
2019-05-16T08:30:11.037Z,2.50
2019-05-16T08:32:42.496Z,3.22
2019-05-16T08:35:15.076Z,3.75
2019-05-16T08:37:47.241Z,7.50
2019-05-16T08:40:21.275Z,5.53
2019-05-16T08:42:54.441Z,6.60
2019-05-16T08:45:26.335Z,4.35
2019-05-16T08:48:00.180Z,7.92
2019-05-16T08:50:35.888Z,5.87
2019-05-16T08:53:06.167Z,6.42
2019-05-16T08:55:37.633Z,3.90
2019-05-16T08:58:13.499Z,3.77
2019-05-16T09:00:42.158Z,4.72
2019-05-16T09:03:13.532Z,5.40
2019-05-16T09:05:44.818Z,20.43
2019-05-16T09:08:16.367Z,9.50
2019-05-16T09:10:59.765Z,9.05
2019-05-16T09:13:22.391Z,6.55
2019-05-16T09:15:56.888Z,6.28
2019-05-16T09:18:29.040Z,5.47
2019-05-16T09:21:00.683Z,3.83
2019-05-16T09:23:33.246Z,3.10
2019-05-16T09:26:07.392Z,3.20
2019-05-16T09:28:40.047Z,3.05
2019-05-16T09:31:11.408Z,3.22
2019-05-16T09:33:43.286Z,3.85
2019-05-16T09:36:17.483Z,3.05
2019-05-16T09:38:48.867Z,3.22
2019-05-16T09:41:20.135Z,3.45
2019-05-16T09:43:51.492Z,3.17
2019-05-16T09:46:23.310Z,3.52
2019-05-16T09:49:13.044Z,2.52
2019-05-16T09:51:27.991Z,3.25
2019-05-16T09:53:59.256Z,3.12
2019-05-16T09:56:31.050Z,2.67
2019-05-16T09:59:02.121Z,3.72
2019-05-16T10:01:36.833Z,3.37
2019-05-16T10:04:07.777Z,3.90
2019-05-16T10:06:39.514Z,3.80
2019-05-16T10:09:10.760Z,4.78
2019-05-16T10:11:42.863Z,6.25
2019-05-16T10:14:17.342Z,4.10
2019-05-16T10:16:49.313Z,3.42
2019-05-16T10:19:20.465Z,3.27
2019-05-16T10:21:51.734Z,3.20
2019-05-16T10:24:23.771Z,3.50
2019-05-16T10:26:57.172Z,4.10
2019-05-16T10:29:29.208Z,4.95
2019-05-16T10:32:01.135Z,4.47
2019-05-16T10:34:33.540Z,8.30
2019-05-16T10:37:05.100Z,10.68
2019-05-16T10:39:37.377Z,7.80
2019-05-16T10:42:23.725Z,6.62
2019-05-16T10:44:43.088Z,12.58
2019-05-16T10:47:17.279Z,5.55
2019-05-16T10:49:48.060Z,4.67
2019-05-16T10:52:19.954Z,6.72
2019-05-16T10:54:58.074Z,13.65
2019-05-16T10:57:29.382Z,6.43
2019-05-16T11:00:09.307Z,4.72
2019-05-16T11:02:33.988Z,5.22
2019-05-16T11:05:24.595Z,5.80
2019-05-16T11:07:39.158Z,5.00
2019-05-16T11:10:10.816Z,5.08
2019-05-16T11:12:50.061Z,4.42
2019-05-16T11:15:17.262Z,5.35
2019-05-16T11:17:49.385Z,6.58
2019-05-16T11:20:22.412Z,4.90
2019-05-16T11:22:53.681Z,4.67
2019-05-16T11:25:32.268Z,4.78
2019-05-16T11:27:58.857Z,6.70
2019-05-16T11:30:30.846Z,5.12
2019-05-16T11:33:02.175Z,5.00
2019-05-16T11:35:33.189Z,4.30
2019-05-16T11:38:07.155Z,5.50
2019-05-16T11:40:38.091Z,14.37
2019-05-16T11:43:17.699Z,8.58
2019-05-16T11:45:43.629Z,5.78
2019-05-16T11:48:17.121Z,4.80
2019-05-16T11:50:48.608Z,5.12
2019-05-16T11:53:19.931Z,6.00
2019-05-16T11:55:56.385Z,6.72
2019-05-16T11:58:26.667Z,5.78
2019-05-16T12:00:58.039Z,4.45
2019-05-16T12:03:29.126Z,5.33
2019-05-16T12:06:01.333Z,4.85
2019-05-16T12:08:33.467Z,6.75
2019-05-16T12:11:06.943Z,4.90
2019-05-16T12:13:38.389Z,4.70
2019-05-16T12:16:10.064Z,4.40
2019-05-16T12:18:41.561Z,4.63
2019-05-16T12:21:13.273Z,5.07
2019-05-16T12:23:47.143Z,4.63
2019-05-16T12:26:18.094Z,7.83
2019-05-16T12:28:50.802Z,5.60
2019-05-16T12:31:22.672Z,5.00
2019-05-16T12:33:59.371Z,7.73
2019-05-16T12:36:31.331Z,7.70
2019-05-16T12:39:01.723Z,5.60
2019-05-16T12:41:40.224Z,5.53
2019-05-16T12:44:08.194Z,4.20
2019-05-16T12:46:39.782Z,6.73
2019-05-16T12:49:11.092Z,4.80
2019-05-16T12:51:43.422Z,8.70
2019-05-16T12:54:18.131Z,5.77
2019-05-16T12:56:48.989Z,4.97
2019-05-16T12:59:21.644Z,5.20
2019-05-16T13:01:53.655Z,4.50
2019-05-16T13:04:27.983Z,4.57
2019-05-16T13:06:58.207Z,4.33
2019-05-16T13:09:30.062Z,3.90
2019-05-16T13:12:01.698Z,3.80
2019-05-16T13:14:33.030Z,6.20
2019-05-16T13:17:07.069Z,7.67
2019-05-16T13:19:44.153Z,4.77
2019-05-16T13:22:11.050Z,7.13
2019-05-16T13:24:42.731Z,5.40
2019-05-16T13:27:20.059Z,6.40
2019-05-16T13:29:47.823Z,10.00
2019-05-16T13:32:20.753Z,7.80
2019-05-16T13:34:52.501Z,6.57
2019-05-16T13:37:24.146Z,4.87
2019-05-16T13:39:56.891Z,6.63
2019-05-16T13:42:28.697Z,4.93
2019-05-16T13:45:00.390Z,4.60
2019-05-16T13:47:32.024Z,7.10
2019-05-16T13:50:03.705Z,6.30
2019-05-16T13:52:36.560Z,5.90
2019-05-16T13:55:09.855Z,6.10
2019-05-16T13:57:41.282Z,6.63
2019-05-16T14:00:17.299Z,5.73
2019-05-16T14:02:48.578Z,5.40
2019-05-16T14:05:20.199Z,5.03
2019-05-16T14:07:52.053Z,4.23
2019-05-16T14:10:23.865Z,4.10
2019-05-16T14:12:57.737Z,3.93
2019-05-16T14:15:29.788Z,3.50
2019-05-16T14:18:02.058Z,10.50
2019-05-16T14:20:33.401Z,8.70
2019-05-16T14:23:08.071Z,19.23
2019-05-16T14:25:38.331Z,6.07
2019-05-16T14:28:09.768Z,5.13
2019-05-16T14:30:41.201Z,3.83
2019-05-16T14:33:14.106Z,5.37
2019-05-16T14:35:47.234Z,4.20
2019-05-16T14:38:19.132Z,3.37
2019-05-16T14:40:50.963Z,4.00
2019-05-16T14:43:22.887Z,3.20
2019-05-16T14:45:54.432Z,2.70
2019-05-16T14:48:27.882Z,3.13
2019-05-16T14:50:59.643Z,4.40
2019-05-16T14:53:31.264Z,7.23
2019-05-16T14:56:02.926Z,4.10
2019-05-16T14:58:37.476Z,5.10
2019-05-16T15:01:07.700Z,2.20
2019-05-16T15:03:39.647Z,3.60
2019-05-16T15:06:11.549Z,4.63
2019-05-16T15:08:43.098Z,3.37
2019-05-16T15:11:17.820Z,9.53
2019-05-16T15:13:49.413Z,2.33
2019-05-16T15:16:21.073Z,6.00
2019-05-16T15:18:53.238Z,7.27
2019-05-16T15:21:24.294Z,13.60
2019-05-16T15:23:59.388Z,6.90
2019-05-16T15:26:30.328Z,2.97
2019-05-16T15:29:02.166Z,2.80
2019-05-16T15:31:33.766Z,2.60
2019-05-16T15:34:05.846Z,3.20
2019-05-16T15:36:37.725Z,4.97
2019-05-16T15:39:10.241Z,4.30
2019-05-16T15:41:41.791Z,3.97
2019-05-16T15:44:13.679Z,3.40
2019-05-16T15:46:47.926Z,35.17
2019-05-16T15:49:20.546Z,15.70
2019-05-16T15:51:53.377Z,43.17
2019-05-16T15:54:28.532Z,13.10
2019-05-16T15:57:00.964Z,5.60
2019-05-16T15:59:32.841Z,7.40
2019-05-16T16:02:07.278Z,4.53
2019-05-16T16:04:38.245Z,6.47
2019-05-16T16:07:10.760Z,2.30
2019-05-16T16:09:42.302Z,2.00
2019-05-16T16:12:16.840Z,2.27
2019-05-16T16:14:47.571Z,1.70
2019-05-16T16:17:18.870Z,4.27
2019-05-16T16:19:50.152Z,5.47
2019-05-16T16:22:22.136Z,2.87
2019-05-16T16:24:53.417Z,2.30
2019-05-16T16:27:27.301Z,2.80
2019-05-16T16:29:59.181Z,4.23
2019-05-16T16:32:31.233Z,2.80
2019-05-16T16:35:02.605Z,3.13
2019-05-16T16:37:34.615Z,5.27
2019-05-16T16:40:11.455Z,3.47
2019-05-16T16:42:39.898Z,3.13
2019-05-16T16:45:11.969Z,5.50
2019-05-16T16:47:43.496Z,5.53
2019-05-16T16:50:17.114Z,8.67
2019-05-16T16:52:49.473Z,5.07
2019-05-16T16:55:27.525Z,3.27
2019-05-16T16:57:59.874Z,4.67
2019-05-16T17:00:31.580Z,4.10
2019-05-16T17:03:07.197Z,5.90
2019-05-16T17:05:37.462Z,4.23
2019-05-16T17:08:09.102Z,3.83
2019-05-16T17:10:40.769Z,3.93
2019-05-16T17:13:12.925Z,4.13
2019-05-16T17:15:44.451Z,4.57
2019-05-16T17:18:17.484Z,3.93
2019-05-16T17:20:48.941Z,4.90
2019-05-16T17:23:21.190Z,5.50
2019-05-16T17:25:53.147Z,8.90
2019-05-16T17:28:25.151Z,7.00
2019-05-16T17:30:56.855Z,6.50
2019-05-16T17:33:28.584Z,6.87
2019-05-16T17:36:00.743Z,6.53
2019-05-16T17:38:32.761Z,5.97
2019-05-16T17:41:04.434Z,6.63
2019-05-16T17:43:36.429Z,6.97
2019-05-16T17:46:08.127Z,6.73
2019-05-16T17:48:40.081Z,6.83
2019-05-16T17:51:11.738Z,6.83
2019-05-16T17:53:43.153Z,7.10
2019-05-16T17:56:16.893Z,7.80
2019-05-16T17:58:48.244Z,7.17
2019-05-16T18:01:20.069Z,7.30
2019-05-16T18:03:51.405Z,7.57
2019-05-16T18:06:23.102Z,7.90
2019-05-16T18:08:57.156Z,7.23
2019-05-16T18:11:29.284Z,6.20
2019-05-16T18:14:00.355Z,6.20
2019-05-16T18:16:33.228Z,8.27
2019-05-16T18:19:07.052Z,6.60
2019-05-16T18:21:38.046Z,6.47
2019-05-16T18:24:09.688Z,6.43
2019-05-16T18:26:41.059Z,7.20
2019-05-16T18:29:12.977Z,6.57
2019-05-16T18:31:47.192Z,7.67
2019-05-16T18:34:19.155Z,6.47
2019-05-16T18:36:51.078Z,6.70
2019-05-16T18:39:22.997Z,6.73
2019-05-16T18:41:56.486Z,6.93
2019-05-16T18:44:28.442Z,8.13
2019-05-16T18:47:06.937Z,7.07
2019-05-16T18:49:36.578Z,7.53
2019-05-16T18:52:07.316Z,6.93
2019-05-16T18:54:39.090Z,8.40
2019-05-16T18:57:11.369Z,7.97
2019-05-16T18:59:46.129Z,8.03
2019-05-16T19:02:17.976Z,8.33
2019-05-16T19:04:50.266Z,7.83
2019-05-16T19:07:21.974Z,8.73
2019-05-16T19:09:54.237Z,7.97
2019-05-16T19:12:26.333Z,8.27
2019-05-16T19:15:00.146Z,9.43
2019-05-16T19:17:30.794Z,10.37
2019-05-16T19:20:02.479Z,10.77
2019-05-16T19:22:34.386Z,10.47
2019-05-16T19:25:07.687Z,9.60
2019-05-16T19:27:40.000Z,11.40
2019-05-16T19:30:12.463Z,12.73
2019-05-16T19:32:46.727Z,12.80
2019-05-16T19:35:18.078Z,12.07
2019-05-16T19:37:49.392Z,13.43
2019-05-16T19:40:21.336Z,12.90
2019-05-16T19:42:53.566Z,12.13
2019-05-16T19:45:26.456Z,15.47
2019-05-16T19:47:58.173Z,14.83
2019-05-16T19:50:29.224Z,14.83
2019-05-16T19:53:01.068Z,14.63
2019-05-16T19:55:32.830Z,14.70
2019-05-16T19:58:06.883Z,20.40
2019-05-16T20:00:38.425Z,17.60
2019-05-16T20:03:10.452Z,17.37
2019-05-16T20:05:42.491Z,17.17
2019-05-16T20:08:17.474Z,17.43
2019-05-16T20:10:48.913Z,21.37
2019-05-16T20:13:20.637Z,19.13
2019-05-16T20:15:52.484Z,19.83
2019-05-16T20:18:24.079Z,19.30
2019-05-16T20:20:56.852Z,21.90
2019-05-16T20:23:30.133Z,22.67
2019-05-16T20:26:02.402Z,24.77
2019-05-16T20:28:36.915Z,21.47
2019-05-16T20:31:09.375Z,25.23
2019-05-16T20:33:40.694Z,24.73
2019-05-16T20:36:12.617Z,24.47
2019-05-16T20:38:46.472Z,24.13
2019-05-16T20:41:17.274Z,23.37
2019-05-16T20:43:48.770Z,23.77
2019-05-16T20:46:20.786Z,22.60
2019-05-16T20:48:52.754Z,23.70
2019-05-16T20:51:26.906Z,22.50
2019-05-16T20:53:58.396Z,22.57
2019-05-16T20:56:30.162Z,22.17
2019-05-16T20:59:01.811Z,22.60
2019-05-16T21:01:33.069Z,24.63
2019-05-16T21:04:04.083Z,22.77
2019-05-16T21:06:35.487Z,24.07
2019-05-16T21:09:08.226Z,23.37
2019-05-16T21:11:40.259Z,21.70
2019-05-16T21:14:12.483Z,21.43
2019-05-16T21:16:44.076Z,22.27
2019-05-16T21:19:16.360Z,22.07
2019-05-16T21:21:47.695Z,22.80
2019-05-16T21:24:22.171Z,22.20
2019-05-16T21:26:54.260Z,23.53
2019-05-16T21:29:27.638Z,23.33
2019-05-16T21:32:00.944Z,22.50
2019-05-16T21:34:32.533Z,21.77
2019-05-16T21:37:13.835Z,21.47
2019-05-16T21:39:37.581Z,20.93
2019-05-16T21:42:09.221Z,22.57
2019-05-16T21:44:40.645Z,22.13
2019-05-16T21:47:12.324Z,23.27
2019-05-16T21:49:44.243Z,21.53
2019-05-16T21:52:16.413Z,23.00
2019-05-16T21:54:48.019Z,22.27
2019-05-16T21:57:20.323Z,22.53
2019-05-16T21:59:51.970Z,20.87
2019-05-16T22:02:23.372Z,20.13
2019-05-16T22:04:56.718Z,22.53
2019-05-16T22:07:33.527Z,22.97
2019-05-16T22:10:02.493Z,22.07
2019-05-16T22:12:38.201Z,21.27
2019-05-16T22:15:10.209Z,19.77
2019-05-16T22:17:43.742Z,22.80
2019-05-16T22:20:16.623Z,23.23
2019-05-16T22:22:48.639Z,23.93
2019-05-16T22:25:20.835Z,25.60
2019-05-16T22:27:52.218Z,24.90
2019-05-16T22:30:23.988Z,25.17
2019-05-16T22:32:55.386Z,24.87
2019-05-16T22:35:27.463Z,23.33
2019-05-16T22:37:59.624Z,24.53
2019-05-16T22:40:33.341Z,24.53
2019-05-16T22:43:09.713Z,26.63
2019-05-16T22:45:38.859Z,25.97
2019-05-16T22:48:09.866Z,25.27
2019-05-16T22:50:41.867Z,24.00
2019-05-16T22:53:13.692Z,26.40
2019-05-16T22:55:47.587Z,27.57
2019-05-16T22:58:18.519Z,27.50
2019-05-16T23:00:49.843Z,27.60
2019-05-16T23:03:20.858Z,25.37
2019-05-16T23:05:52.737Z,28.10
2019-05-16T23:08:24.021Z,26.57
2019-05-16T23:10:56.491Z,27.37
2019-05-16T23:13:28.072Z,25.00
2019-05-16T23:16:00.035Z,29.70
2019-05-16T23:18:31.530Z,27.73
2019-05-16T23:21:03.126Z,25.90
2019-05-16T23:23:37.013Z,36.67
2019-05-16T23:26:08.510Z,27.87
2019-05-16T23:28:40.158Z,30.70
2019-05-16T23:31:11.786Z,32.37
2019-05-16T23:33:42.817Z,38.17
2019-05-16T23:36:17.250Z,36.07
2019-05-16T23:38:47.624Z,35.37
2019-05-16T23:41:19.253Z,32.10
2019-05-16T23:43:50.605Z,29.93
2019-05-16T23:46:22.490Z,31.03
2019-05-16T23:48:56.433Z,33.10
2019-05-16T23:51:27.718Z,33.97
2019-05-16T23:53:59.588Z,36.77
2019-05-16T23:56:31.228Z,36.70
2019-05-16T23:59:02.837Z,35.13
